createdAt,value
2023-03-21T00:01:34.682Z,97160.22
2023-03-21T00:04:01.177Z,97174.16
2023-03-21T00:06:27.677Z,97169.25
2023-03-21T00:08:54.103Z,97177.44
2023-03-21T00:11:20.937Z,97170.50
2023-03-21T00:13:47.373Z,97173.13
2023-03-21T00:16:18.545Z,97164.09
2023-03-21T00:18:54.717Z,97180.00
2023-03-21T00:21:44.010Z,97149.25
2023-03-21T00:24:08.029Z,97156.97
2023-03-21T00:26:34.481Z,97150.03
2023-03-21T00:29:00.900Z,97156.50
2023-03-21T00:31:27.295Z,97172.28
2023-03-21T00:33:53.672Z,97165.09
2023-03-21T00:36:20.183Z,97160.84
2023-03-21T00:38:46.728Z,97130.13
2023-03-21T00:41:35.168Z,97148.28
2023-03-21T00:43:59.844Z,97149.94
2023-03-21T00:46:30.140Z,97145.44
2023-03-21T00:49:03.032Z,97144.63
2023-03-21T00:51:29.456Z,97126.97
2023-03-21T00:53:56.756Z,97139.91
2023-03-21T00:56:23.181Z,97145.28
2023-03-21T00:58:49.666Z,97137.53
2023-03-21T01:01:16.159Z,97137.53
2023-03-21T01:03:42.585Z,97124.69
2023-03-21T01:06:10.212Z,97134.50
2023-03-21T01:08:51.044Z,97138.94
2023-03-21T01:11:19.569Z,97149.47
2023-03-21T01:13:53.762Z,97121.09
2023-03-21T01:16:22.496Z,97147.59
2023-03-21T01:18:48.942Z,97130.25
2023-03-21T01:21:15.350Z,97121.72
2023-03-21T01:23:42.003Z,97160.53
2023-03-21T01:26:08.909Z,97140.09
2023-03-21T01:28:35.435Z,97130.28
2023-03-21T01:31:02.125Z,97137.47
2023-03-21T01:33:28.584Z,97122.78
2023-03-21T01:36:03.359Z,97141.72
2023-03-21T01:38:36.644Z,97118.72
2023-03-21T01:41:08.609Z,97161.22
2023-03-21T01:43:40.621Z,97137.88
2023-03-21T01:46:10.466Z,97113.38
2023-03-21T01:48:36.927Z,97127.56
2023-03-21T01:51:03.282Z,97148.72
2023-03-21T01:53:29.999Z,97136.97
2023-03-21T01:55:58.222Z,97131.94
2023-03-21T01:58:24.691Z,97106.81
2023-03-21T02:00:51.367Z,97131.91
2023-03-21T02:03:29.551Z,97130.03
2023-03-21T02:06:01.589Z,97088.03
2023-03-21T02:08:39.288Z,97117.44
2023-03-21T02:11:07.123Z,97105.69
2023-03-21T02:13:33.637Z,97099.59
2023-03-21T02:15:59.946Z,97096.91
2023-03-21T02:18:32.335Z,97110.06
2023-03-21T02:21:22.696Z,97107.13
2023-03-21T02:23:55.284Z,97120.28
2023-03-21T02:26:48.243Z,97109.81
2023-03-21T02:29:35.315Z,97112.00
2023-03-21T02:32:22.422Z,97102.56
2023-03-21T02:34:59.792Z,97068.53
2023-03-21T02:37:38.286Z,97127.78
2023-03-21T02:40:23.810Z,97108.78
2023-03-21T02:43:14.182Z,97106.34
2023-03-21T02:45:53.489Z,97089.22
2023-03-21T02:48:29.286Z,97095.56
2023-03-21T02:50:59.937Z,97094.81
2023-03-21T02:53:27.526Z,97101.00
2023-03-21T02:55:53.924Z,97080.69
2023-03-21T02:58:20.989Z,97091.16
2023-03-21T03:00:47.364Z,97093.25
2023-03-21T03:03:24.845Z,97108.28
2023-03-21T03:05:58.608Z,97085.00
2023-03-21T03:08:50.168Z,97084.56
2023-03-21T03:11:20.612Z,97077.31
2023-03-21T03:13:50.086Z,97103.00
2023-03-21T03:16:16.768Z,97081.09
2023-03-21T03:18:52.491Z,97104.88
2023-03-21T03:21:18.928Z,97095.56
2023-03-21T03:23:55.709Z,97068.22
2023-03-21T03:26:22.187Z,97082.69
2023-03-21T03:28:50.395Z,97094.75
2023-03-21T03:31:20.736Z,97106.25
2023-03-21T03:33:48.429Z,97088.25
2023-03-21T03:36:30.350Z,97064.97
2023-03-21T03:38:58.390Z,97130.84
2023-03-21T03:41:25.991Z,97090.19
2023-03-21T03:43:53.889Z,97099.25
2023-03-21T03:46:35.179Z,97086.16
2023-03-21T03:49:02.900Z,97074.09
2023-03-21T03:51:31.086Z,97062.81
2023-03-21T03:53:58.839Z,97077.28
2023-03-21T03:56:25.481Z,97087.44
2023-03-21T03:58:52.026Z,97090.94
2023-03-21T04:01:18.448Z,97106.41
2023-03-21T04:03:50.505Z,97110.97
2023-03-21T04:06:19.367Z,97084.66
2023-03-21T04:08:45.781Z,97105.03
2023-03-21T04:11:15.424Z,97095.19
2023-03-21T04:13:41.959Z,97083.13
2023-03-21T04:16:08.805Z,97091.09
2023-03-21T04:18:35.232Z,97102.63
2023-03-21T04:21:01.809Z,97083.06
2023-03-21T04:23:28.248Z,97104.22
2023-03-21T04:25:57.254Z,97094.28
2023-03-21T04:28:23.994Z,97103.31
2023-03-21T04:31:01.199Z,97091.56
2023-03-21T04:33:29.961Z,97062.75
2023-03-21T04:35:56.420Z,97104.66
2023-03-21T04:38:23.413Z,97103.28
2023-03-21T04:40:50.024Z,97098.50
2023-03-21T04:43:16.372Z,97107.41
2023-03-21T04:45:42.906Z,97100.13
2023-03-21T04:48:09.507Z,97098.53
2023-03-21T04:50:36.214Z,97092.09
2023-03-21T04:53:02.796Z,97104.88
2023-03-21T04:55:29.228Z,97080.03
2023-03-21T04:57:55.661Z,97087.75
2023-03-21T05:00:22.123Z,97077.78
2023-03-21T05:02:48.566Z,97100.06
2023-03-21T05:05:15.070Z,97088.78
2023-03-21T05:07:42.126Z,97092.59
2023-03-21T05:10:09.607Z,97075.47
2023-03-21T05:12:36.023Z,97078.66
2023-03-21T05:15:02.961Z,97062.59
2023-03-21T05:17:29.524Z,97077.84
2023-03-21T05:19:56.141Z,97077.13
2023-03-21T05:22:22.947Z,97056.00
2023-03-21T05:24:49.869Z,97071.47
2023-03-21T05:27:19.346Z,97065.88
2023-03-21T05:29:45.828Z,97067.25
2023-03-21T05:32:12.267Z,97061.38
2023-03-21T05:34:38.696Z,97062.97
2023-03-21T05:37:05.130Z,97082.84
2023-03-21T05:39:31.530Z,97076.97
2023-03-21T05:41:57.962Z,97069.75
2023-03-21T05:44:24.362Z,97078.06
2023-03-21T05:46:50.795Z,97092.25
2023-03-21T05:49:17.290Z,97076.53
2023-03-21T05:51:43.717Z,97070.38
2023-03-21T05:54:10.277Z,97080.00
2023-03-21T05:56:36.856Z,97106.75
2023-03-21T05:59:03.416Z,97084.84
2023-03-21T06:01:30.124Z,97088.94
2023-03-21T06:03:56.572Z,97104.72
2023-03-21T06:06:22.971Z,97093.78
2023-03-21T06:08:49.876Z,97103.19
2023-03-21T06:11:35.884Z,97093.03
2023-03-21T06:14:02.417Z,97089.28
2023-03-21T06:16:28.914Z,97097.59
2023-03-21T06:18:55.552Z,97089.03
2023-03-21T06:21:22.079Z,97097.91
2023-03-21T06:23:48.841Z,97095.00
2023-03-21T06:26:15.203Z,97093.16
2023-03-21T06:28:41.613Z,97105.97
2023-03-21T06:31:08.042Z,97098.50
2023-03-21T06:33:34.581Z,97107.13
2023-03-21T06:36:00.995Z,97111.94
2023-03-21T06:38:27.527Z,97100.44
2023-03-21T06:40:53.936Z,97081.97
2023-03-21T06:43:20.329Z,97081.41
2023-03-21T06:45:46.801Z,97123.25
2023-03-21T06:48:13.248Z,97081.41
2023-03-21T06:50:39.795Z,97126.47
2023-03-21T06:53:06.809Z,97097.25
2023-03-21T06:55:33.257Z,97093.22
2023-03-21T06:57:59.820Z,97151.16
2023-03-21T07:00:26.257Z,97112.53
2023-03-21T07:02:52.826Z,97107.97
2023-03-21T07:05:19.795Z,97115.19
2023-03-21T07:07:46.586Z,97108.22
2023-03-21T07:10:13.080Z,97106.06
2023-03-21T07:12:39.585Z,97101.78
2023-03-21T07:15:08.106Z,97113.00
2023-03-21T07:17:34.784Z,97119.69
2023-03-21T07:20:01.279Z,97113.94
2023-03-21T07:22:29.319Z,97127.00
2023-03-21T07:25:04.414Z,97131.94
2023-03-21T07:27:34.039Z,97127.47
2023-03-21T07:30:00.516Z,97117.88
2023-03-21T07:32:27.009Z,97107.50
2023-03-21T07:34:54.316Z,97105.66
2023-03-21T07:37:20.878Z,97101.97
2023-03-21T07:39:47.295Z,97107.84
2023-03-21T07:42:13.752Z,97105.31
2023-03-21T07:44:40.629Z,97115.78
2023-03-21T07:47:07.025Z,97078.56
2023-03-21T07:49:34.883Z,97109.16
2023-03-21T07:52:02.414Z,97142.09
2023-03-21T07:54:29.414Z,97131.47
2023-03-21T07:56:56.148Z,97151.41
2023-03-21T07:59:23.709Z,97115.63
2023-03-21T08:01:50.221Z,97111.94
2023-03-21T08:04:16.749Z,97116.97
2023-03-21T08:06:43.921Z,97123.09
2023-03-21T08:09:10.491Z,97103.63
2023-03-21T08:11:36.882Z,97104.88
2023-03-21T08:14:03.420Z,97111.19
2023-03-21T08:16:30.677Z,97128.25
2023-03-21T08:18:57.181Z,97115.81
2023-03-21T08:21:23.762Z,97093.84
2023-03-21T08:23:50.306Z,97102.13
2023-03-21T08:26:16.691Z,97109.94
2023-03-21T08:28:43.244Z,97146.66
2023-03-21T08:31:10.695Z,97110.66
2023-03-21T08:33:37.125Z,97117.03
2023-03-21T08:36:03.999Z,97101.31
2023-03-21T08:38:30.675Z,97089.94
2023-03-21T08:40:59.794Z,97114.78
2023-03-21T08:43:26.959Z,97104.47
2023-03-21T08:45:53.428Z,97105.13
2023-03-21T08:48:19.861Z,97110.69
2023-03-21T08:50:46.418Z,97123.38
2023-03-21T08:53:12.905Z,97104.03
2023-03-21T08:55:39.466Z,97106.91
2023-03-21T08:58:05.919Z,97082.59
2023-03-21T09:00:32.369Z,97088.66
2023-03-21T09:02:58.817Z,97088.66
2023-03-21T09:05:25.306Z,97077.59
2023-03-21T09:07:51.742Z,97096.34
2023-03-21T09:10:24.630Z,97098.47
2023-03-21T09:12:51.738Z,97090.28
2023-03-21T09:15:19.813Z,97086.63
2023-03-21T09:17:46.301Z,97087.53
2023-03-21T09:20:14.569Z,97085.16
2023-03-21T09:22:42.933Z,97111.25
2023-03-21T09:25:09.456Z,97061.97
2023-03-21T09:27:36.125Z,97102.69
2023-03-21T09:30:02.599Z,97077.91
2023-03-21T09:32:29.026Z,97067.31
2023-03-21T09:34:55.423Z,97085.06
2023-03-21T09:37:21.999Z,97073.94
2023-03-21T09:39:48.712Z,97073.81
2023-03-21T09:42:32.382Z,97060.41
2023-03-21T09:45:01.912Z,97066.16
2023-03-21T09:47:30.074Z,97073.28
2023-03-21T09:50:14.477Z,97068.78
2023-03-21T09:53:00.533Z,97073.47
2023-03-21T09:55:31.733Z,97072.28
2023-03-21T09:58:07.033Z,97057.69
2023-03-21T10:00:34.874Z,97054.47
2023-03-21T10:03:03.206Z,97082.44
2023-03-21T10:05:30.265Z,97086.94
2023-03-21T10:07:59.533Z,97038.84
2023-03-21T10:10:29.533Z,97039.56
2023-03-21T10:12:56.184Z,97067.72
2023-03-21T10:15:24.466Z,97048.91
2023-03-21T10:17:52.706Z,97064.06
2023-03-21T10:20:20.442Z,97064.44
2023-03-21T10:22:47.451Z,97057.16
2023-03-21T10:25:16.436Z,97061.28
2023-03-21T10:27:42.924Z,97049.31
2023-03-21T10:30:09.712Z,97063.16
2023-03-21T10:32:36.504Z,97044.56
2023-03-21T10:35:03.009Z,97041.66
2023-03-21T10:37:29.427Z,97023.13
2023-03-21T10:39:56.457Z,97038.34
2023-03-21T10:42:26.975Z,97041.25
2023-03-21T10:44:54.140Z,97056.22
2023-03-21T10:47:21.610Z,97009.88
2023-03-21T10:50:17.356Z,97039.09
2023-03-21T10:52:34.828Z,97054.66
2023-03-21T10:55:08.890Z,97060.63
2023-03-21T10:57:35.310Z,97041.44
2023-03-21T11:00:01.911Z,97039.47
2023-03-21T11:02:29.997Z,97031.59
2023-03-21T11:04:56.552Z,97018.13
2023-03-21T11:07:23.063Z,97064.31
2023-03-21T11:09:56.397Z,97064.72
2023-03-21T11:12:30.405Z,97026.44
2023-03-21T11:14:56.832Z,97031.88
2023-03-21T11:17:25.531Z,97015.84
2023-03-21T11:19:59.082Z,96999.34
2023-03-21T11:22:26.448Z,97018.28
2023-03-21T11:24:53.614Z,97021.16
2023-03-21T11:27:20.135Z,96999.84
2023-03-21T11:29:47.857Z,97011.19
2023-03-21T11:32:21.356Z,96984.25
2023-03-21T11:34:47.703Z,96971.00
2023-03-21T11:37:33.241Z,96987.19
2023-03-21T11:40:19.889Z,96968.19
2023-03-21T11:42:47.441Z,96959.78
2023-03-21T11:45:15.310Z,96969.66
2023-03-21T11:47:43.370Z,96974.69
2023-03-21T11:50:30.108Z,96949.38
2023-03-21T11:53:06.147Z,96978.22
2023-03-21T11:55:41.359Z,96963.91
2023-03-21T11:58:20.090Z,96925.41
2023-03-21T12:00:55.923Z,96960.94
2023-03-21T12:03:47.441Z,96953.78
2023-03-21T12:06:17.464Z,96948.78
2023-03-21T12:08:43.899Z,96913.91
2023-03-21T12:11:22.070Z,96923.09
2023-03-21T12:13:51.735Z,96935.63
2023-03-21T12:16:21.207Z,96908.81
2023-03-21T12:18:59.612Z,96933.59
2023-03-21T12:21:28.674Z,96927.69
2023-03-21T12:24:06.038Z,96955.13
2023-03-21T12:26:33.265Z,96915.84
2023-03-21T12:28:59.601Z,96903.91
2023-03-21T12:31:28.518Z,96914.72
2023-03-21T12:33:55.035Z,96909.72
2023-03-21T12:36:37.658Z,96883.56
2023-03-21T12:39:08.495Z,96889.00
2023-03-21T12:41:39.451Z,96892.44
2023-03-21T12:44:09.069Z,96906.63
2023-03-21T12:46:45.330Z,96891.06
2023-03-21T12:49:44.201Z,96878.66
2023-03-21T12:52:17.147Z,96901.41
2023-03-21T12:54:47.588Z,96876.34
2023-03-21T12:57:16.227Z,96866.22
2023-03-21T12:59:48.736Z,96870.09
2023-03-21T13:02:18.041Z,96912.28
2023-03-21T13:04:48.481Z,96876.47
2023-03-21T13:07:15.957Z,96863.53
2023-03-21T13:09:42.406Z,96865.88
2023-03-21T13:12:29.109Z,96854.34
2023-03-21T13:15:23.649Z,96881.38
2023-03-21T13:17:52.594Z,96866.25
2023-03-21T13:20:22.024Z,96848.38
2023-03-21T13:22:48.445Z,96843.72
2023-03-21T13:25:19.174Z,96857.56
2023-03-21T13:27:52.166Z,96859.84
2023-03-21T13:30:18.602Z,96850.38
2023-03-21T13:32:47.177Z,96846.13
2023-03-21T13:35:22.781Z,96861.66
2023-03-21T13:38:09.489Z,96834.13
2023-03-21T13:40:38.184Z,96844.47
2023-03-21T13:43:04.868Z,96827.81
2023-03-21T13:45:54.644Z,96826.69
2023-03-21T13:48:27.493Z,96822.56
2023-03-21T13:51:00.731Z,96832.97
2023-03-21T13:53:41.151Z,96798.13
2023-03-21T13:56:09.051Z,96834.31
2023-03-21T13:58:44.338Z,96802.22
2023-03-21T14:01:30.406Z,96840.50
2023-03-21T14:03:58.379Z,96824.94
2023-03-21T14:06:25.497Z,96818.50
2023-03-21T14:08:52.098Z,96806.06
2023-03-21T14:11:19.009Z,96815.84
2023-03-21T14:13:51.389Z,96805.41
2023-03-21T14:16:19.112Z,96815.47
2023-03-21T14:18:55.109Z,96796.16
2023-03-21T14:21:26.070Z,96775.25
2023-03-21T14:24:01.254Z,96808.53
2023-03-21T14:26:29.151Z,96798.53
2023-03-21T14:28:55.553Z,96800.47
2023-03-21T14:31:23.140Z,96814.59
2023-03-21T14:33:53.602Z,96811.22
2023-03-21T14:36:21.808Z,96797.84
2023-03-21T14:39:02.287Z,96795.28
2023-03-21T14:41:29.076Z,96801.94
2023-03-21T14:44:12.090Z,96770.50
2023-03-21T14:46:39.009Z,96811.16
2023-03-21T14:49:12.420Z,96772.03
2023-03-21T14:51:40.528Z,96768.94
2023-03-21T14:54:06.945Z,96799.66
2023-03-21T14:56:34.351Z,96799.28
2023-03-21T14:59:00.862Z,96766.91
2023-03-21T15:01:31.201Z,96781.88
2023-03-21T15:04:00.396Z,96797.44
2023-03-21T15:06:28.022Z,96773.31
2023-03-21T15:09:15.420Z,96778.78
2023-03-21T15:11:41.884Z,96792.00
2023-03-21T15:14:08.914Z,96796.41
2023-03-21T15:16:35.534Z,96776.06
2023-03-21T15:19:02.209Z,96775.59
2023-03-21T15:21:29.865Z,96787.97
2023-03-21T15:23:57.892Z,96763.81
2023-03-21T15:26:25.020Z,96783.91
2023-03-21T15:28:55.229Z,96765.59
2023-03-21T15:31:25.908Z,96777.47
2023-03-21T15:33:52.712Z,96735.19
2023-03-21T15:36:23.235Z,96757.38
2023-03-21T15:38:49.657Z,96747.44
2023-03-21T15:41:19.103Z,96786.88
2023-03-21T15:43:49.023Z,96764.34
2023-03-21T15:46:16.288Z,96746.81
2023-03-21T15:48:42.891Z,96756.75
2023-03-21T15:51:27.906Z,96739.97
2023-03-21T15:53:54.483Z,96765.53
2023-03-21T15:56:20.959Z,96756.75
2023-03-21T15:58:47.890Z,96761.53
2023-03-21T16:01:23.235Z,96751.09
2023-03-21T16:03:55.325Z,96758.94
2023-03-21T16:06:23.906Z,96750.16
2023-03-21T16:08:52.903Z,96734.78
2023-03-21T16:11:23.385Z,96756.13
2023-03-21T16:13:50.040Z,96766.34
2023-03-21T16:16:19.524Z,96750.56
2023-03-21T16:18:45.967Z,96795.13
2023-03-21T16:21:12.946Z,96764.50
2023-03-21T16:23:39.374Z,96751.88
2023-03-21T16:26:05.891Z,96754.59
2023-03-21T16:28:32.867Z,96762.28
2023-03-21T16:30:59.324Z,96759.88
2023-03-21T16:33:25.863Z,96760.84
2023-03-21T16:35:52.266Z,96771.88
2023-03-21T16:38:18.731Z,96761.34
2023-03-21T16:40:45.838Z,96778.09
2023-03-21T16:43:12.294Z,96777.28
2023-03-21T16:45:39.411Z,96792.28
2023-03-21T16:48:06.012Z,96763.25
2023-03-21T16:50:33.384Z,96774.59
2023-03-21T16:52:59.980Z,96780.78
2023-03-21T16:55:26.546Z,96766.88
2023-03-21T16:57:53.070Z,96800.13
2023-03-21T17:00:24.817Z,96757.19
2023-03-21T17:02:51.367Z,96779.88
2023-03-21T17:05:17.910Z,96808.63
2023-03-21T17:07:45.363Z,96788.88
2023-03-21T17:10:16.271Z,96791.25
2023-03-21T17:12:42.802Z,96799.22
2023-03-21T17:15:09.589Z,96819.53
2023-03-21T17:17:36.136Z,96811.56
2023-03-21T17:20:06.823Z,96785.09
2023-03-21T17:22:33.262Z,96793.16
2023-03-21T17:24:59.836Z,96779.22
2023-03-21T17:27:26.562Z,96797.03
2023-03-21T17:29:54.867Z,96770.00
2023-03-21T17:32:21.429Z,96778.16
2023-03-21T17:34:48.184Z,96771.16
2023-03-21T17:37:14.634Z,96785.66
2023-03-21T17:39:41.024Z,96781.03
2023-03-21T17:42:10.755Z,96804.31
2023-03-21T17:44:37.166Z,96783.41
2023-03-21T17:47:03.585Z,96777.91
2023-03-21T17:49:30.045Z,96793.69
2023-03-21T17:51:56.709Z,96816.75
2023-03-21T17:54:23.104Z,96798.25
2023-03-21T17:56:49.518Z,96796.78
2023-03-21T17:59:16.736Z,96797.28
2023-03-21T18:01:43.522Z,96797.28
2023-03-21T18:04:10.712Z,96787.41
2023-03-21T18:06:37.270Z,96812.09
2023-03-21T18:09:04.697Z,96799.81
2023-03-21T18:11:31.227Z,96767.03
2023-03-21T18:14:13.811Z,96805.25
2023-03-21T18:16:41.749Z,96797.88
2023-03-21T18:19:08.350Z,96803.16
2023-03-21T18:21:35.768Z,96800.66
2023-03-21T18:24:02.679Z,96786.25
2023-03-21T18:26:31.075Z,96810.63
2023-03-21T18:31:57.684Z,96799.78
2023-03-21T18:34:31.767Z,96796.94
2023-03-21T18:36:58.617Z,96806.81
2023-03-21T18:39:25.436Z,96786.22
2023-03-21T18:41:51.888Z,96805.91
2023-03-21T18:44:20.364Z,96806.41
2023-03-21T18:46:48.929Z,96820.66
2023-03-21T18:50:01.689Z,96819.38
2023-03-21T18:52:02.665Z,96804.59
2023-03-21T18:54:29.128Z,96787.91
2023-03-21T18:59:42.154Z,96811.72
2023-03-21T19:02:08.637Z,96808.97
2023-03-21T19:04:37.330Z,96812.50
2023-03-21T19:07:04.036Z,96811.00
2023-03-21T19:09:32.101Z,96807.34
2023-03-21T19:11:58.999Z,96794.19
2023-03-21T19:14:25.430Z,96832.59
2023-03-21T19:19:39.637Z,96821.25
2023-03-21T19:22:06.191Z,96808.59
2023-03-21T19:24:32.747Z,96794.09
2023-03-21T19:26:59.224Z,96799.13
2023-03-21T19:29:26.558Z,96815.94
2023-03-21T19:31:53.294Z,96818.41
2023-03-21T19:34:19.931Z,96817.81
2023-03-21T19:36:51.438Z,96812.72
2023-03-21T19:39:18.721Z,96817.00
2023-03-21T19:41:45.240Z,96811.41
2023-03-21T19:44:12.421Z,96834.47
2023-03-21T19:46:38.845Z,96822.47
2023-03-21T19:49:06.582Z,96828.88
2023-03-21T19:51:33.473Z,96831.66
2023-03-21T19:54:00.381Z,96832.78
2023-03-21T19:56:27.870Z,96822.50
2023-03-21T19:58:54.876Z,96826.03
2023-03-21T20:01:21.431Z,96825.13
2023-03-21T20:03:48.036Z,96824.94
2023-03-21T20:06:14.521Z,96820.44
2023-03-21T20:09:13.753Z,96825.81
2023-03-21T20:11:27.266Z,96821.66
2023-03-21T20:13:53.687Z,96828.22
2023-03-21T20:16:20.669Z,96819.75
2023-03-21T20:18:47.296Z,96812.63
2023-03-21T20:21:18.471Z,96818.00
2023-03-21T20:23:50.301Z,96818.81
2023-03-21T20:26:16.775Z,96812.94
2023-03-21T20:28:56.069Z,96822.91
2023-03-21T20:31:29.956Z,96817.00
2023-03-21T20:33:56.509Z,96820.53
2023-03-21T20:36:39.781Z,96834.94
2023-03-21T20:39:07.450Z,96829.22
2023-03-21T20:41:33.886Z,96819.34
2023-03-21T20:44:41.689Z,96818.00
2023-03-21T20:46:46.889Z,96816.47
2023-03-21T20:49:13.717Z,96809.09
2023-03-21T20:54:27.420Z,96824.56
2023-03-21T20:56:53.907Z,96814.94
2023-03-21T20:59:26.498Z,96825.75
2023-03-21T21:01:54.380Z,96819.56
2023-03-21T21:04:21.024Z,96815.16
2023-03-21T21:06:48.456Z,96813.78
2023-03-21T21:09:15.062Z,96811.59
2023-03-21T21:14:27.937Z,96823.19
2023-03-21T21:16:54.719Z,96812.19
2023-03-21T21:19:21.385Z,96805.44
2023-03-21T21:21:47.812Z,96803.72
2023-03-21T21:24:14.775Z,96820.72
2023-03-21T21:26:41.376Z,96823.03
2023-03-21T21:29:07.914Z,96803.06
2023-03-21T21:31:34.507Z,96794.44
2023-03-21T21:34:00.936Z,96812.88
2023-03-21T21:36:27.342Z,96806.63
2023-03-21T21:38:53.746Z,96826.09
2023-03-21T21:41:20.591Z,96833.78
2023-03-21T21:43:47.258Z,96827.75
2023-03-21T21:46:13.751Z,96819.69
2023-03-21T21:48:40.477Z,96818.78
2023-03-21T21:51:07.098Z,96813.75
2023-03-21T21:53:33.590Z,96785.06
2023-03-21T21:56:00.247Z,96794.47
2023-03-21T21:58:26.832Z,96795.66
2023-03-21T22:00:53.315Z,96802.06
2023-03-21T22:03:19.833Z,96815.22
2023-03-21T22:05:46.270Z,96819.88
2023-03-21T22:08:12.697Z,96809.41
2023-03-21T22:10:39.310Z,96821.25
2023-03-21T22:13:05.937Z,96810.81
2023-03-21T22:15:32.297Z,96811.44
2023-03-21T22:17:58.691Z,96819.38
2023-03-21T22:20:25.104Z,96811.84
2023-03-21T22:22:51.676Z,96813.47
2023-03-21T22:25:18.193Z,96826.47
2023-03-21T22:27:44.687Z,96815.72
2023-03-21T22:30:12.068Z,96833.13
2023-03-21T22:32:38.547Z,96812.75
2023-03-21T22:35:05.358Z,96811.81
2023-03-21T22:37:32.044Z,96821.53
2023-03-21T22:39:58.533Z,96806.22
2023-03-21T22:42:25.046Z,96823.06
2023-03-21T22:44:51.620Z,96805.91
2023-03-21T22:47:17.995Z,96806.41
2023-03-21T22:49:44.846Z,96802.84
2023-03-21T22:52:11.401Z,96806.56
2023-03-21T22:54:37.946Z,96809.22
2023-03-21T22:57:04.993Z,96796.06
2023-03-21T22:59:31.534Z,96810.03
2023-03-21T23:01:58.193Z,96806.00
2023-03-21T23:04:25.265Z,96815.72
2023-03-21T23:06:51.783Z,96807.94
2023-03-21T23:09:18.428Z,96804.72
2023-03-21T23:11:44.950Z,96795.09
2023-03-21T23:14:11.396Z,96814.84
2023-03-21T23:16:37.772Z,96781.94
2023-03-21T23:19:04.198Z,96814.84
2023-03-21T23:21:30.594Z,96818.34
2023-03-21T23:23:57.059Z,96822.03
2023-03-21T23:26:23.661Z,96828.53
2023-03-21T23:28:50.169Z,96820.44
2023-03-21T23:31:20.782Z,96816.25
2023-03-21T23:33:47.472Z,96786.25
2023-03-21T23:36:14.200Z,96798.34
2023-03-21T23:38:40.677Z,96795.19
2023-03-21T23:41:07.746Z,96817.72
2023-03-21T23:43:34.132Z,96817.84
2023-03-21T23:46:00.580Z,96774.34
2023-03-21T23:48:27.577Z,96817.44
2023-03-21T23:50:54.043Z,96801.81
2023-03-21T23:53:20.458Z,96787.91
2023-03-21T23:55:46.881Z,96789.25
2023-03-21T23:58:13.293Z,96808.56
